createdAt,value
2018-04-14T00:01:47.603Z,100182.70
2018-04-14T00:04:15.010Z,100178.78
2018-04-14T00:06:42.405Z,100177.44
2018-04-14T00:09:09.856Z,100177.51
2018-04-14T00:11:37.239Z,100174.97
2018-04-14T00:14:04.649Z,100184.25
2018-04-14T00:16:32.066Z,100186.78
2018-04-14T00:18:59.511Z,100189.95
2018-04-14T00:21:27.886Z,100193.84
2018-04-14T00:23:55.273Z,100190.28
2018-04-14T00:26:22.681Z,100200.38
2018-04-14T00:28:50.068Z,100191.03
2018-04-14T00:31:17.475Z,100196.75
2018-04-14T00:33:44.884Z,100202.62
2018-04-14T00:36:12.304Z,100206.39
2018-04-14T00:38:39.704Z,100209.06
2018-04-14T00:41:07.131Z,100216.13
2018-04-14T00:43:34.512Z,100216.95
2018-04-14T00:46:01.952Z,100216.22
2018-04-14T00:48:29.348Z,100212.67
2018-04-14T00:50:56.741Z,100212.83
2018-04-14T00:53:35.964Z,100211.97
2018-04-14T00:56:03.363Z,100209.83
2018-04-14T00:58:30.765Z,100213.87
2018-04-14T01:00:58.149Z,100215.19
2018-04-14T01:03:25.553Z,100222.45
2018-04-14T01:05:52.956Z,100226.80
2018-04-14T01:08:20.327Z,100222.64
2018-04-14T01:10:54.191Z,100222.91
2018-04-14T01:13:25.103Z,100224.66
2018-04-14T01:15:52.625Z,100227.85
2018-04-14T01:18:20.024Z,100224.02
2018-04-14T01:20:47.426Z,100224.06
2018-04-14T01:23:15.676Z,100224.81
2018-04-14T01:25:43.359Z,100221.72
2018-04-14T01:28:10.942Z,100227.77
2018-04-14T01:30:38.384Z,100229.53
2018-04-14T01:33:05.974Z,100241.45
2018-04-14T01:35:33.369Z,100245.64
2018-04-14T01:38:00.792Z,100241.55
2018-04-14T01:40:28.168Z,100237.38
2018-04-14T01:42:55.564Z,100241.27
2018-04-14T01:45:23.024Z,100247.64
2018-04-14T01:47:50.439Z,100246.59
2018-04-14T01:50:18.169Z,100236.83
2018-04-14T01:52:45.574Z,100243.91
2018-04-14T01:55:12.979Z,100244.53
2018-04-14T01:57:41.477Z,100244.25
2018-04-14T02:00:08.869Z,100247.36
2018-04-14T02:02:36.272Z,100252.65
2018-04-14T02:05:03.836Z,100255.20
2018-04-14T02:07:31.430Z,100253.23
2018-04-14T02:09:58.833Z,100252.62
2018-04-14T02:12:26.299Z,100257.55
2018-04-14T02:14:53.722Z,100254.58
2018-04-14T02:17:21.368Z,100253.89
2018-04-14T02:19:48.753Z,100256.81
2018-04-14T02:22:16.240Z,100262.94
2018-04-14T02:24:43.809Z,100261.53
2018-04-14T02:27:11.241Z,100267.90
2018-04-14T02:29:38.789Z,100265.70
2018-04-14T02:32:06.219Z,100272.45
2018-04-14T02:34:33.682Z,100273.51
2018-04-14T02:37:01.133Z,100267.16
2018-04-14T02:39:28.736Z,100267.30
2018-04-14T02:41:56.145Z,100268.53
2018-04-14T02:44:24.071Z,100264.58
2018-04-14T02:46:51.466Z,100265.26
2018-04-14T02:49:18.858Z,100264.37
2018-04-14T02:51:46.261Z,100264.17
2018-04-14T02:54:13.664Z,100263.96
2018-04-14T02:56:41.256Z,100264.26
2018-04-14T02:59:08.647Z,100269.67
2018-04-14T03:01:36.068Z,100269.97
2018-04-14T03:04:03.502Z,100272.38
2018-04-14T03:06:30.876Z,100269.69
2018-04-14T03:08:58.281Z,100278.02
2018-04-14T03:11:26.375Z,100280.09
2018-04-14T03:13:53.779Z,100274.66
2018-04-14T03:16:21.186Z,100281.70
2018-04-14T03:18:48.588Z,100287.81
2018-04-14T03:21:15.961Z,100289.15
2018-04-14T03:23:43.426Z,100292.85
2018-04-14T03:26:10.852Z,100293.43
2018-04-14T03:28:38.209Z,100295.48
2018-04-14T03:31:05.618Z,100299.29
2018-04-14T03:33:33.020Z,100300.59
2018-04-14T03:36:00.432Z,100291.89
2018-04-14T03:38:28.947Z,100297.78
2018-04-14T03:40:57.439Z,100297.83
2018-04-14T03:43:24.838Z,100303.10
2018-04-14T03:45:52.608Z,100300.77
2018-04-14T03:48:20.017Z,100300.23
2018-04-14T03:50:47.511Z,100314.16
2018-04-14T03:53:14.904Z,100304.17
2018-04-14T03:55:42.310Z,100303.27
2018-04-14T03:58:09.806Z,100303.02
2018-04-14T04:00:37.206Z,100301.94
2018-04-14T04:03:04.591Z,100302.23
2018-04-14T04:05:31.989Z,100310.41
2018-04-14T04:07:59.369Z,100310.16
2018-04-14T04:13:00.555Z,100321.02
2018-04-14T04:15:27.938Z,100319.77
2018-04-14T04:17:55.539Z,100322.48
2018-04-14T04:23:26.486Z,100334.18
2018-04-14T04:25:53.886Z,100329.22
2018-04-14T04:28:21.267Z,100331.61
2018-04-14T04:30:48.673Z,100341.38
2018-04-14T04:33:16.047Z,100343.03
2018-04-14T04:35:43.511Z,100341.97
2018-04-14T04:38:10.931Z,100345.36
2018-04-14T04:40:38.329Z,100354.41
2018-04-14T04:43:05.720Z,100359.20
2018-04-14T04:45:33.575Z,100360.23
2018-04-14T04:48:01.025Z,100359.35
2018-04-14T04:50:28.397Z,100364.97
2018-04-14T04:52:55.776Z,100369.22
2018-04-14T04:55:23.146Z,100371.38
2018-04-14T04:57:50.523Z,100375.41
2018-04-14T05:00:17.912Z,100380.89
2018-04-14T05:02:45.298Z,100382.41
2018-04-14T05:05:12.672Z,100379.78
2018-04-14T05:07:40.056Z,100393.28
2018-04-14T05:10:07.508Z,100394.00
2018-04-14T05:12:36.870Z,100399.30
2018-04-14T05:15:04.254Z,100401.52
2018-04-14T05:17:31.643Z,100405.39
2018-04-14T05:19:59.030Z,100412.50
2018-04-14T05:22:26.404Z,100412.53
2018-04-14T05:24:53.782Z,100420.42
2018-04-14T05:27:21.210Z,100421.62
2018-04-14T05:29:48.618Z,100426.47
2018-04-14T05:32:16.033Z,100424.64
2018-04-14T05:34:43.428Z,100424.13
2018-04-14T05:37:10.811Z,100424.70
2018-04-14T05:39:42.063Z,100424.56
2018-04-14T05:42:15.464Z,100425.54
2018-04-14T05:44:46.149Z,100427.21
2018-04-14T05:47:13.523Z,100425.69
2018-04-14T05:49:40.913Z,100426.67
2018-04-14T05:52:08.293Z,100421.69
2018-04-14T05:54:35.694Z,100421.59
2018-04-14T05:57:03.079Z,100428.39
2018-04-14T05:59:30.450Z,100425.55
2018-04-14T06:01:57.846Z,100425.52
2018-04-14T06:04:25.238Z,100430.80
2018-04-14T06:06:52.601Z,100432.97
2018-04-14T06:09:19.971Z,100430.07
2018-04-14T06:11:47.383Z,100433.92
2018-04-14T06:14:14.752Z,100426.22
2018-04-14T06:16:42.539Z,100432.45
2018-04-14T06:19:09.923Z,100439.09
2018-04-14T06:21:37.613Z,100434.49
2018-04-14T06:24:04.995Z,100450.05
2018-04-14T06:26:32.410Z,100452.65
2018-04-14T06:28:59.804Z,100451.33
2018-04-14T06:31:27.344Z,100456.72
2018-04-14T06:33:54.731Z,100461.61
2018-04-14T06:36:22.120Z,100474.44
2018-04-14T06:38:49.510Z,100473.05
2018-04-14T06:41:16.878Z,100471.86
2018-04-14T06:43:44.320Z,100471.07
2018-04-14T06:46:11.693Z,100474.48
2018-04-14T06:48:39.142Z,100473.29
2018-04-14T06:51:06.511Z,100468.95
2018-04-14T06:53:33.914Z,100473.20
2018-04-14T06:56:01.307Z,100477.08
2018-04-14T06:58:28.686Z,100483.74
2018-04-14T07:00:56.103Z,100484.98
2018-04-14T07:03:23.458Z,100484.70
2018-04-14T07:05:50.846Z,100488.53
2018-04-14T07:08:18.228Z,100497.39
2018-04-14T07:10:45.699Z,100500.52
2018-04-14T07:13:13.093Z,100499.00
2018-04-14T07:15:40.467Z,100501.55
2018-04-14T07:18:07.846Z,100507.81
2018-04-14T07:20:35.303Z,100518.58
2018-04-14T07:23:02.631Z,100504.19
2018-04-14T07:25:30.031Z,100505.09
2018-04-14T07:27:57.427Z,100511.47
2018-04-14T07:30:24.806Z,100501.41
2018-04-14T07:32:52.186Z,100506.66
2018-04-14T07:35:19.578Z,100513.19
2018-04-14T07:37:46.976Z,100517.99
2018-04-14T07:40:14.385Z,100513.91
2018-04-14T07:42:41.773Z,100522.33
2018-04-14T07:45:09.200Z,100519.59
2018-04-14T07:47:36.580Z,100517.56
2018-04-14T07:50:03.955Z,100522.27
2018-04-14T07:52:34.308Z,100529.40
2018-04-14T07:55:01.717Z,100531.94
2018-04-14T07:57:29.096Z,100530.12
2018-04-14T07:59:56.498Z,100527.25
2018-04-14T08:02:23.885Z,100533.27
2018-04-14T08:04:51.288Z,100522.25
2018-04-14T08:07:18.683Z,100523.62
2018-04-14T08:09:46.084Z,100528.09
2018-04-14T08:12:13.570Z,100530.42
2018-04-14T08:14:40.992Z,100533.62
2018-04-14T08:17:08.377Z,100533.69
2018-04-14T08:19:35.764Z,100539.47
2018-04-14T08:22:03.161Z,100537.41
2018-04-14T08:24:30.945Z,100539.76
2018-04-14T08:26:58.313Z,100540.30
2018-04-14T08:29:25.750Z,100552.39
2018-04-14T08:31:53.121Z,100556.61
2018-04-14T08:34:20.506Z,100547.22
2018-04-14T08:36:47.991Z,100558.73
2018-04-14T08:39:15.371Z,100561.45
2018-04-14T08:41:42.827Z,100553.84
2018-04-14T08:44:10.202Z,100552.23
2018-04-14T08:46:37.608Z,100545.58
2018-04-14T08:49:05.002Z,100554.45
2018-04-14T08:51:32.499Z,100557.32
2018-04-14T08:53:59.970Z,100574.03
2018-04-14T08:56:27.387Z,100564.83
2018-04-14T08:58:54.773Z,100559.53
2018-04-14T09:01:22.137Z,100561.84
2018-04-14T09:03:49.596Z,100555.62
2018-04-14T09:06:17.045Z,100558.95
2018-04-14T09:08:44.452Z,100566.48
2018-04-14T09:11:14.944Z,100561.39
2018-04-14T09:13:42.354Z,100564.62
2018-04-14T09:16:09.783Z,100563.90
2018-04-14T09:18:37.106Z,100566.59
2018-04-14T09:21:04.483Z,100567.61
2018-04-14T09:23:31.914Z,100558.35
2018-04-14T09:25:59.337Z,100570.02
2018-04-14T09:28:26.735Z,100556.58
2018-04-14T09:30:54.123Z,100554.06
2018-04-14T09:33:21.962Z,100560.01
2018-04-14T09:35:49.354Z,100552.11
2018-04-14T09:38:16.748Z,100551.52
2018-04-14T09:40:44.135Z,100550.75
2018-04-14T09:43:11.555Z,100549.63
2018-04-14T09:45:38.925Z,100546.31
2018-04-14T09:48:06.311Z,100543.92
2018-04-14T09:50:33.704Z,100542.27
2018-04-14T09:53:01.790Z,100538.24
2018-04-14T09:55:29.496Z,100546.09
2018-04-14T09:57:56.904Z,100536.44
2018-04-14T10:00:27.275Z,100539.11
2018-04-14T10:03:00.686Z,100535.67
2018-04-14T10:05:28.024Z,100534.92
2018-04-14T10:07:55.491Z,100530.19
2018-04-14T10:10:22.979Z,100532.48
2018-04-14T10:12:50.330Z,100526.25
2018-04-14T10:15:17.775Z,100530.46
2018-04-14T10:17:45.205Z,100531.72
2018-04-14T10:20:12.583Z,100523.91
2018-04-14T10:22:39.971Z,100524.87
2018-04-14T10:25:07.363Z,100524.38
2018-04-14T10:27:34.775Z,100522.48
2018-04-14T10:30:02.150Z,100517.67
2018-04-14T10:32:29.537Z,100515.91
2018-04-14T10:34:57.196Z,100513.47
2018-04-14T10:37:24.602Z,100524.97
2018-04-14T10:39:52.134Z,100506.55
2018-04-14T10:42:19.516Z,100504.02
2018-04-14T10:44:46.891Z,100495.70
2018-04-14T10:47:14.378Z,100496.12
2018-04-14T10:49:41.784Z,100503.86
2018-04-14T10:52:09.172Z,100489.84
2018-04-14T10:54:36.567Z,100491.48
2018-04-14T10:57:03.951Z,100493.53
2018-04-14T10:59:31.351Z,100495.04
2018-04-14T11:01:58.770Z,100505.13
2018-04-14T11:04:26.165Z,100491.52
2018-04-14T11:06:53.546Z,100483.45
2018-04-14T11:09:20.947Z,100484.91
2018-04-14T11:11:48.332Z,100485.02
2018-04-14T11:14:15.706Z,100481.30
2018-04-14T11:16:43.087Z,100476.50
2018-04-14T11:19:10.479Z,100480.80
2018-04-14T11:21:37.883Z,100478.98
2018-04-14T11:24:05.283Z,100480.75
2018-04-14T11:26:32.757Z,100477.75
2018-04-14T11:29:00.176Z,100480.35
2018-04-14T11:31:27.680Z,100480.56
2018-04-14T11:33:55.011Z,100477.23
2018-04-14T11:36:22.404Z,100483.82
2018-04-14T11:38:49.789Z,100475.38
2018-04-14T11:41:17.195Z,100476.36
2018-04-14T11:43:44.602Z,100471.50
2018-04-14T11:46:12.004Z,100474.47
2018-04-14T11:48:39.357Z,100475.66
2018-04-14T11:51:06.768Z,100476.91
2018-04-14T11:53:34.188Z,100468.63
2018-04-14T11:56:01.575Z,100471.40
2018-04-14T11:58:28.958Z,100465.72
2018-04-14T12:00:56.354Z,100472.34
2018-04-14T12:03:23.744Z,100474.59
2018-04-14T12:05:51.218Z,100472.44
2018-04-14T12:08:18.593Z,100470.30
2018-04-14T12:10:45.980Z,100477.66
2018-04-14T12:13:13.439Z,100479.84
2018-04-14T12:15:40.810Z,100472.48
2018-04-14T12:18:08.210Z,100463.83
2018-04-14T12:20:35.644Z,100465.03
2018-04-14T12:23:03.044Z,100462.50
2018-04-14T12:25:30.417Z,100467.63
2018-04-14T12:27:57.830Z,100464.99
2018-04-14T12:30:25.218Z,100462.45
2018-04-14T12:32:52.638Z,100466.84
2018-04-14T12:35:20.027Z,100463.39
2018-04-14T12:37:47.451Z,100459.49
2018-04-14T12:40:14.885Z,100455.57
2018-04-14T12:42:42.261Z,100453.70
2018-04-14T12:45:09.647Z,100457.90
2018-04-14T12:47:37.058Z,100453.03
2018-04-14T12:50:04.507Z,100455.16
2018-04-14T12:52:31.885Z,100452.15
2018-04-14T12:54:59.269Z,100455.61
2018-04-14T12:57:26.654Z,100449.95
2018-04-14T12:59:54.338Z,100459.73
2018-04-14T13:02:21.849Z,100457.33
2018-04-14T13:04:49.247Z,100461.28
2018-04-14T13:07:17.740Z,100454.79
2018-04-14T13:09:45.127Z,100473.17
2018-04-14T13:12:17.674Z,100474.02
2018-04-14T13:14:45.254Z,100457.70
2018-04-14T13:17:12.697Z,100448.98
2018-04-14T13:19:40.071Z,100438.13
2018-04-14T13:22:07.501Z,100431.98
2018-04-14T13:24:34.880Z,100435.71
2018-04-14T13:27:02.341Z,100430.54
2018-04-14T13:29:29.767Z,100435.70
2018-04-14T13:31:57.269Z,100429.83
2018-04-14T13:34:24.653Z,100435.33
2018-04-14T13:36:52.050Z,100436.64
2018-04-14T13:39:20.614Z,100426.30
2018-04-14T13:41:48.016Z,100427.97
2018-04-14T13:44:15.403Z,100415.14
2018-04-14T13:46:43.726Z,100420.18
2018-04-14T13:49:11.126Z,100417.84
2018-04-14T13:51:38.516Z,100411.41
2018-04-14T13:54:05.949Z,100408.80
2018-04-14T13:56:33.321Z,100400.13
2018-04-14T13:59:00.703Z,100395.77
2018-04-14T14:01:28.105Z,100392.50
2018-04-14T14:03:55.494Z,100380.98
2018-04-14T14:06:22.899Z,100379.53
2018-04-14T14:08:50.293Z,100382.55
2018-04-14T14:11:17.699Z,100386.17
2018-04-14T14:13:45.123Z,100372.70
2018-04-14T14:16:12.795Z,100369.72
2018-04-14T14:18:40.221Z,100363.59
2018-04-14T14:21:07.617Z,100354.91
2018-04-14T14:23:35.042Z,100361.19
2018-04-14T14:26:02.817Z,100356.61
2018-04-14T14:28:30.266Z,100350.59
2018-04-14T14:30:57.631Z,100339.03
2018-04-14T14:33:25.069Z,100340.41
2018-04-14T14:35:52.483Z,100334.05
2018-04-14T14:38:19.870Z,100332.87
2018-04-14T14:40:47.519Z,100331.59
2018-04-14T14:43:14.924Z,100331.42
2018-04-14T14:45:42.316Z,100320.80
2018-04-14T14:48:09.723Z,100332.18
2018-04-14T14:50:37.127Z,100319.50
2018-04-14T14:53:04.642Z,100310.61
2018-04-14T14:55:32.054Z,100312.80
2018-04-14T14:57:59.465Z,100298.34
2018-04-14T15:00:26.888Z,100306.77
2018-04-14T15:02:54.337Z,100305.97
2018-04-14T15:05:21.756Z,100303.07
2018-04-14T15:07:49.145Z,100297.18
2018-04-14T15:10:16.598Z,100295.02
2018-04-14T15:12:43.963Z,100284.24
2018-04-14T15:15:11.368Z,100287.53
2018-04-14T15:17:38.772Z,100281.57
2018-04-14T15:20:06.215Z,100289.04
2018-04-14T15:22:33.596Z,100295.91
2018-04-14T15:25:01.004Z,100289.74
2018-04-14T15:27:28.391Z,100293.88
2018-04-14T15:29:55.804Z,100299.46
2018-04-14T15:32:23.211Z,100300.73
2018-04-14T15:34:50.616Z,100300.41
2018-04-14T15:37:18.004Z,100301.19
2018-04-14T15:39:45.404Z,100294.91
2018-04-14T15:42:12.817Z,100305.78
2018-04-14T15:44:40.189Z,100304.51
2018-04-14T15:47:07.571Z,100308.31
2018-04-14T15:49:34.982Z,100312.66
2018-04-14T15:52:02.360Z,100310.63
2018-04-14T15:54:29.881Z,100309.72
2018-04-14T15:56:57.267Z,100310.33
2018-04-14T15:59:24.661Z,100309.07
2018-04-14T16:01:52.067Z,100308.75
2018-04-14T16:04:19.518Z,100317.02
2018-04-14T16:06:46.893Z,100312.00
2018-04-14T16:09:14.385Z,100312.64
2018-04-14T16:11:41.779Z,100306.84
2018-04-14T16:14:09.194Z,100308.49
2018-04-14T16:16:36.600Z,100307.62
2018-04-14T16:19:04.015Z,100304.22
2018-04-14T16:21:31.707Z,100300.36
2018-04-14T16:23:59.216Z,100298.34
2018-04-14T16:26:26.621Z,100299.11
2018-04-14T16:28:54.060Z,100301.31
2018-04-14T16:31:21.492Z,100303.95
2018-04-14T16:33:48.869Z,100303.09
2018-04-14T16:36:16.291Z,100304.38
2018-04-14T16:38:43.699Z,100302.61
2018-04-14T16:41:11.165Z,100308.56
2018-04-14T16:43:38.608Z,100303.52
2018-04-14T16:46:06.034Z,100307.09
2018-04-14T16:48:33.420Z,100306.11
2018-04-14T16:51:00.817Z,100306.58
2018-04-14T16:53:28.231Z,100315.66
2018-04-14T16:55:55.692Z,100319.17
2018-04-14T16:58:23.073Z,100314.92
2018-04-14T17:00:50.443Z,100311.86
2018-04-14T17:03:17.854Z,100316.66
2018-04-14T17:05:45.223Z,100305.81
2018-04-14T17:08:12.608Z,100311.90
2018-04-14T17:10:40.031Z,100312.33
2018-04-14T17:13:07.427Z,100304.58
2018-04-14T17:15:38.370Z,100311.49
2018-04-14T17:18:11.264Z,100316.66
2018-04-14T17:20:38.770Z,100307.18
2018-04-14T17:23:06.166Z,100306.73
2018-04-14T17:25:33.553Z,100303.70
2018-04-14T17:28:00.938Z,100306.72
2018-04-14T17:30:28.329Z,100309.77
2018-04-14T17:32:55.719Z,100304.13
2018-04-14T17:35:23.094Z,100299.81
2018-04-14T17:37:50.490Z,100296.36
2018-04-14T17:40:17.938Z,100298.52
2018-04-14T17:42:45.331Z,100296.80
2018-04-14T17:45:12.715Z,100296.76
2018-04-14T17:47:40.114Z,100299.73
2018-04-14T17:50:07.483Z,100294.53
2018-04-14T17:52:34.892Z,100292.03
2018-04-14T17:55:02.339Z,100298.92
2018-04-14T17:57:29.728Z,100300.17
2018-04-14T17:59:57.140Z,100303.57
2018-04-14T18:02:24.523Z,100301.81
2018-04-14T18:04:51.913Z,100304.87
2018-04-14T18:07:19.285Z,100300.55
2018-04-14T18:09:46.690Z,100297.53
2018-04-14T18:12:14.134Z,100288.42
2018-04-14T18:14:41.535Z,100291.02
2018-04-14T18:17:09.062Z,100294.00
2018-04-14T18:19:36.532Z,100295.70
2018-04-14T18:22:04.843Z,100299.98
2018-04-14T18:24:32.323Z,100301.65
2018-04-14T18:26:59.775Z,100297.36
2018-04-14T18:29:27.152Z,100296.94
2018-04-14T18:31:54.627Z,100304.28
2018-04-14T18:34:21.989Z,100306.43
2018-04-14T18:36:49.393Z,100307.53
2018-04-14T18:39:16.827Z,100310.49
2018-04-14T18:41:44.235Z,100314.81
2018-04-14T18:44:11.863Z,100319.83
2018-04-14T18:46:39.801Z,100317.60
2018-04-14T18:49:07.423Z,100321.26
2018-04-14T18:51:35.272Z,100324.85
2018-04-14T18:54:04.591Z,100322.36
2018-04-14T18:56:32.293Z,100333.69
2018-04-14T18:58:59.883Z,100334.41
2018-04-14T19:01:27.544Z,100342.84
2018-04-14T19:03:55.180Z,100339.57
2018-04-14T19:06:23.774Z,100345.63
2018-04-14T19:08:51.423Z,100345.48
2018-04-14T19:11:19.677Z,100343.62
2018-04-14T19:13:47.390Z,100348.86
2018-04-14T19:16:15.268Z,100345.90
2018-04-14T19:18:42.989Z,100343.50
2018-04-14T19:21:10.745Z,100343.58
2018-04-14T19:23:38.448Z,100347.41
2018-04-14T19:26:06.109Z,100352.98
2018-04-14T19:28:33.699Z,100346.20
2018-04-14T19:31:01.391Z,100344.38
2018-04-14T19:33:29.100Z,100343.78
2018-04-14T19:35:56.768Z,100344.34
2018-04-14T19:38:24.388Z,100342.00
2018-04-14T19:40:51.788Z,100342.91
2018-04-14T19:43:19.184Z,100342.14
2018-04-14T19:45:46.550Z,100337.87
2018-04-14T19:48:14.171Z,100344.00
2018-04-14T19:50:41.547Z,100344.80
2018-04-14T19:53:08.921Z,100337.84
2018-04-14T19:55:36.674Z,100339.11
2018-04-14T19:58:04.048Z,100332.05
2018-04-14T20:00:31.434Z,100326.89
2018-04-14T20:02:58.822Z,100326.96
2018-04-14T20:05:26.211Z,100326.00
2018-04-14T20:07:53.588Z,100327.02
2018-04-14T20:10:20.976Z,100328.46
2018-04-14T20:12:48.923Z,100326.73
2018-04-14T20:15:18.773Z,100331.30
2018-04-14T20:17:48.420Z,100321.31
2018-04-14T20:20:20.132Z,100316.07
2018-04-14T20:22:47.502Z,100326.48
2018-04-14T20:25:14.922Z,100330.56
2018-04-14T20:27:42.271Z,100322.75
2018-04-14T20:30:09.672Z,100325.30
2018-04-14T20:32:37.061Z,100324.30
2018-04-14T20:35:04.469Z,100323.41
2018-04-14T20:37:31.841Z,100320.41
2018-04-14T20:39:59.235Z,100314.62
2018-04-14T20:42:26.619Z,100312.52
2018-04-14T20:44:54.010Z,100309.33
2018-04-14T20:47:21.387Z,100304.51
2018-04-14T20:49:48.810Z,100303.31
2018-04-14T20:52:16.220Z,100299.02
2018-04-14T20:54:43.613Z,100306.05
2018-04-14T20:57:11.003Z,100302.70
2018-04-14T20:59:38.385Z,100298.89
2018-04-14T21:02:05.775Z,100289.99
2018-04-14T21:04:33.150Z,100295.85
2018-04-14T21:07:00.535Z,100285.72
2018-04-14T21:09:27.941Z,100286.55
2018-04-14T21:11:55.677Z,100279.03
2018-04-14T21:14:23.053Z,100268.05
2018-04-14T21:16:50.463Z,100267.45
2018-04-14T21:19:17.882Z,100270.14
2018-04-14T21:21:45.276Z,100267.92
2018-04-14T21:24:12.831Z,100268.66
2018-04-14T21:26:40.253Z,100267.89
2018-04-14T21:29:07.606Z,100270.41
2018-04-14T21:31:34.994Z,100269.44
2018-04-14T21:34:02.769Z,100261.05
2018-04-14T21:36:30.318Z,100262.95
2018-04-14T21:38:57.726Z,100265.16
2018-04-14T21:41:25.106Z,100261.09
2018-04-14T21:43:52.494Z,100254.64
2018-04-14T21:46:19.888Z,100261.70
2018-04-14T21:48:48.379Z,100260.11
2018-04-14T21:51:16.286Z,100256.20
2018-04-14T21:53:43.687Z,100255.81
2018-04-14T21:56:11.094Z,100256.81
2018-04-14T21:58:38.501Z,100254.67
2018-04-14T22:01:05.870Z,100247.85
2018-04-14T22:03:33.270Z,100244.21
2018-04-14T22:06:00.672Z,100240.55
2018-04-14T22:08:28.046Z,100244.05
2018-04-14T22:10:55.440Z,100236.02
2018-04-14T22:13:22.821Z,100242.80
2018-04-14T22:15:51.120Z,100241.63
2018-04-14T22:18:18.627Z,100243.09
2018-04-14T22:20:46.027Z,100235.95
2018-04-14T22:23:13.407Z,100235.03
2018-04-14T22:25:40.803Z,100236.26
2018-04-14T22:28:08.305Z,100231.50
2018-04-14T22:30:35.688Z,100221.56
2018-04-14T22:33:03.071Z,100224.53
2018-04-14T22:35:30.459Z,100218.16
2018-04-14T22:37:57.976Z,100210.00
2018-04-14T22:40:26.138Z,100202.19
2018-04-14T22:42:53.565Z,100203.67
2018-04-14T22:45:20.946Z,100200.14
2018-04-14T22:47:48.466Z,100200.95
2018-04-14T22:50:15.880Z,100200.00
2018-04-14T22:52:43.268Z,100198.48
2018-04-14T22:55:10.652Z,100197.40
2018-04-14T22:57:38.493Z,100193.20
2018-04-14T23:00:06.046Z,100193.50
2018-04-14T23:02:33.435Z,100184.95
2018-04-14T23:05:00.833Z,100185.20
2018-04-14T23:07:28.211Z,100182.98
2018-04-14T23:09:55.599Z,100187.03
2018-04-14T23:12:23.007Z,100182.50
2018-04-14T23:14:50.423Z,100185.91
2018-04-14T23:17:17.831Z,100182.25
2018-04-14T23:19:45.292Z,100183.05
2018-04-14T23:22:15.451Z,100185.16
2018-04-14T23:24:42.846Z,100173.45
2018-04-14T23:27:10.215Z,100166.80
2018-04-14T23:29:37.666Z,100166.52
2018-04-14T23:32:05.028Z,100159.13
2018-04-14T23:34:32.451Z,100156.03
2018-04-14T23:36:59.834Z,100155.87
2018-04-14T23:39:27.238Z,100149.84
2018-04-14T23:41:54.634Z,100154.12
2018-04-14T23:44:22.005Z,100156.67
2018-04-14T23:46:49.390Z,100154.75
2018-04-14T23:49:16.774Z,100147.46
2018-04-14T23:51:44.164Z,100150.56
2018-04-14T23:54:12.697Z,100149.44
2018-04-14T23:56:40.066Z,100155.23
2018-04-14T23:59:07.479Z,100150.05
